Time;durP1;ratioP1;P1;durP2;ratioP2;P2;SDS_P1;SDS_P2;PMS_P1;PMS_P2;Temp;Humidity;BMP_temperature;BMP_pressure;BME280_temperature;BME280_humidity;BME280_pressure;Samples;Min_cycle;Max_cycle;Signal;HPM_P1;HPM_P2
2022/05/03 00:00:06;;;;;;;5.03;3.83;;;10.60;98.70;;;10.64;69.55;94739.31;5053366;28;20495;-56
2022/05/03 00:02:45;;;;;;;3.60;3.30;;;10.60;98.60;;;10.64;68.82;94741.13;5060777;28;20499;-56
2022/05/03 00:05:17;;;;;;;5.03;3.30;;;10.60;98.10;;;10.62;69.07;94740.44;5051189;28;20730;-58
2022/05/03 00:07:48;;;;;;;3.53;3.23;;;10.60;98.10;;;10.58;68.31;94738.09;5057751;28;20475;-58
2022/05/03 00:10:20;;;;;;;3.73;3.43;;;10.60;97.80;;;10.56;68.55;94741.81;5051709;28;20553;-56
2022/05/03 00:12:49;;;;;;;3.90;3.60;;;10.60;97.80;;;10.54;68.61;94733.25;5055804;28;20459;-58
2022/05/03 00:15:18;;;;;;;4.17;3.57;;;10.50;97.90;;;10.50;68.89;94740.63;5062472;28;20478;-57
2022/05/03 00:17:45;;;;;;;4.40;4.03;;;10.50;98.10;;;10.46;68.50;94733.16;5049560;28;20460;-58
2022/05/03 00:20:13;;;;;;;6.60;3.23;;;10.50;97.80;;;10.44;68.76;94737.72;5059736;28;20479;-58
2022/05/03 00:22:40;;;;;;;3.40;3.10;;;10.40;97.90;;;10.41;68.91;94733.59;5055396;28;20763;-58
2022/05/03 00:25:08;;;;;;;4.60;3.30;;;10.40;98.20;;;10.39;68.75;94736.34;5056260;28;20483;-55
2022/05/03 00:27:37;;;;;;;5.90;3.50;;;10.40;98.30;;;10.35;68.97;94731.53;5057889;28;20880;-56
2022/05/03 00:30:06;;;;;;;3.70;3.40;;;10.30;98.00;;;10.32;68.99;94727.34;5056362;28;20481;-57
2022/05/03 00:32:34;;;;;;;4.00;3.20;;;10.30;98.00;;;10.31;69.11;94730.94;5059126;28;20448;-59
2022/05/03 00:35:01;;;;;;;4.77;3.13;;;10.30;98.20;;;10.27;68.71;94724.31;5049936;28;21039;-57
2022/05/03 00:37:29;;;;;;;4.37;2.90;;;10.30;97.90;;;10.24;68.93;94724.59;5054259;28;20464;-57
2022/05/03 00:39:56;;;;;;;4.50;2.60;;;10.30;98.10;;;10.21;68.63;94727.50;5049550;28;20532;-57
2022/05/03 00:42:26;;;;;;;3.77;3.40;;;10.20;97.80;;;10.18;68.96;94725.16;5051465;28;21049;-57
2022/05/03 00:45:04;;;;;;;3.13;2.93;;;10.20;98.10;;;10.16;69.31;94733.19;5048720;28;20559;-57
2022/05/03 00:47:51;;;;;;;3.70;3.40;;;10.20;98.30;;;10.14;70.22;94729.84;5050677;28;20475;-57
2022/05/03 00:50:30;;;;;;;5.23;3.80;;;10.10;98.90;;;10.12;69.75;94729.16;5056069;28;20566;-59
2022/05/03 00:53:08;;;;;;;3.67;3.37;;;10.10;98.50;;;10.10;69.68;94739.00;5049273;28;20451;-56
2022/05/03 00:56:10;;;;;;;3.40;3.20;;;10.10;98.60;;;10.08;69.99;94725.16;5052307;28;20573;-56
2022/05/03 00:59:03;;;;;;;3.30;3.20;;;10.10;98.70;;;10.05;70.34;94731.53;5052254;28;20450;-57
2022/05/03 01:01:45;;;;;;;2.83;2.63;;;10.10;99.10;;;10.00;69.42;94722.41;5053421;28;20483;-57
2022/05/03 01:04:20;;;;;;;2.83;2.70;;;10.00;98.50;;;10.00;69.57;94728.47;5057216;28;20995;-58
2022/05/03 01:06:55;;;;;;;3.80;3.50;;;10.00;98.50;;;9.98;70.68;94725.16;5048824;28;20487;-57
2022/05/03 01:09:32;;;;;;;3.40;3.10;;;10.00;99.40;;;9.96;70.14;94723.63;5050592;28;20499;-58
2022/05/03 01:12:11;;;;;;;3.30;3.10;;;10.00;99.00;;;9.94;70.10;94723.78;5045921;28;20551;-57
2022/05/03 01:15:02;;;;;;;3.30;3.00;;;10.00;98.80;;;9.93;70.08;94716.88;5053046;28;20936;-56
2022/05/03 01:17:40;;;;;;;4.13;3.80;;;10.00;99.00;;;9.94;70.21;94721.16;5055737;28;20466;-56
2022/05/03 01:20:09;;;;;;;4.40;2.60;;;10.00;98.90;;;9.93;71.06;94716.03;5054720;28;20477;-57
2022/05/03 01:23:18;;;;;;;4.23;3.20;;;9.90;99.90;;;9.91;70.76;94718.81;5052720;28;20811;-59
2022/05/03 01:26:04;;;;;;;3.20;3.00;;;9.90;99.70;;;9.91;70.03;94707.47;5057761;28;21141;-57
2022/05/03 01:28:32;;;;;;;3.50;3.20;;;9.90;99.60;;;9.90;69.95;94713.69;5054477;28;20490;-57
2022/05/03 01:31:06;;;;;;;2.90;2.80;;;9.90;99.40;;;9.90;70.58;94709.28;5056186;28;20478;-58
2022/05/03 01:33:34;;;;;;;4.00;3.70;;;9.90;99.60;;;9.90;70.33;94708.44;5052611;28;20537;-57
2022/05/03 01:36:02;;;;;;;3.13;2.93;;;9.90;99.60;;;9.88;70.45;94708.56;5055130;28;20479;-58
2022/05/03 01:38:50;;;;;;;3.53;3.13;;;9.90;99.80;;;9.87;70.47;94706.94;5056725;28;20955;-57
2022/05/03 01:41:29;;;;;;;3.60;3.40;;;9.90;99.60;;;9.84;70.30;94702.78;5049541;28;20583;-57
2022/05/03 01:44:16;;;;;;;4.67;3.10;;;9.90;99.60;;;9.82;70.15;94696.00;5046770;28;20538;-57
2022/05/03 01:46:45;;;;;;;3.70;3.50;;;9.80;99.40;;;9.80;70.79;94701.38;5052052;28;20476;-58
2022/05/03 01:52:31;;;;;;;3.33;3.13;;;9.80;99.70;;;9.81;70.56;94692.56;5058134;28;20807;-59
2022/05/03 01:55:08;;;;;;;2.60;2.50;;;9.80;99.70;;;9.81;70.88;94687.31;5051596;28;21006;-60
2022/05/03 01:57:47;;;;;;;3.20;3.00;;;9.80;99.90;;;9.82;70.20;94693.38;5052855;28;20542;-56
2022/05/03 02:00:14;;;;;;;3.90;2.83;;;9.80;99.80;;;9.84;69.98;94697.53;5049741;28;20484;-57
2022/05/03 02:02:57;;;;;;;3.37;3.17;;;9.80;99.60;;;9.87;70.72;94699.88;5053470;28;20534;-58
2022/05/03 02:05:54;;;;;;;3.33;3.03;;;9.90;99.80;;;9.89;69.93;94697.09;5055381;28;20577;-58
2022/05/03 02:08:22;;;;;;;6.17;3.53;;;9.90;99.70;;;9.89;69.97;94696.28;5048495;28;20565;-57
2022/05/03 02:11:07;;;;;;;3.33;3.13;;;9.90;99.50;;;9.86;69.93;94700.00;5047686;28;20483;-57
2022/05/03 02:16:59;;;;;;;3.47;3.17;;;9.80;99.40;;;9.83;69.45;94695.03;5052572;28;20891;-57
2022/05/03 02:19:48;;;;;;;3.87;3.57;;;9.80;99.20;;;9.83;69.78;94695.84;5041706;28;20464;-56
2022/05/03 02:22:56;;;;;;;3.67;3.30;;;9.80;99.10;;;9.81;70.03;94691.72;5050719;28;20549;-57
2022/05/03 02:25:36;;;;;;;3.03;2.90;;;9.80;99.30;;;9.80;69.57;94692.69;5033154;28;21022;-58
2022/05/03 02:28:05;;;;;;;4.87;3.50;;;9.80;99.10;;;9.80;69.68;94690.06;5050159;28;20495;-56
2022/05/03 02:30:33;;;;;;;3.23;2.87;;;9.80;99.20;;;9.79;69.92;94689.25;5050594;28;20474;-56
2022/05/03 02:33:02;;;;;;;3.10;2.90;;;9.80;99.50;;;9.79;69.74;94696.28;5050409;28;20458;-56
2022/05/03 02:35:34;;;;;;;3.30;3.10;;;9.80;99.40;;;9.78;69.57;94689.38;5054008;28;20492;-56
2022/05/03 02:38:05;;;;;;;3.50;3.30;;;9.80;99.10;;;9.76;69.47;94688.69;5054510;28;20459;-57
2022/05/03 02:40:33;;;;;;;3.93;3.60;;;9.80;99.00;;;9.74;69.69;94688.81;5052981;28;20478;-58
2022/05/03 02:43:00;;;;;;;4.00;3.60;;;9.80;99.20;;;9.74;69.90;94686.19;5051948;28;20516;-57
2022/05/03 02:45:28;;;;;;;5.03;3.40;;;9.70;99.30;;;9.74;70.29;94690.63;5044305;28;20473;-56
2022/05/03 02:48:02;;;;;;;4.43;3.70;;;9.70;99.50;;;9.76;70.24;94683.41;5048315;28;20968;-59
2022/05/03 02:50:37;;;;;;;4.13;3.70;;;9.80;99.50;;;9.78;70.34;94684.13;5055500;28;20474;-56
2022/05/03 02:53:07;;;;;;;4.57;4.27;;;9.80;99.60;;;9.79;70.86;94678.75;5051344;28;20466;-57
2022/05/03 02:55:44;;;;;;;6.03;4.20;;;9.80;99.90;;;9.86;70.11;94690.31;5054899;28;20479;-58
2022/05/03 02:58:24;;;;;;;4.73;3.00;;;9.80;99.80;;;9.92;70.20;94683.69;5044112;28;20455;-58
2022/05/03 03:04:04;;;;;;;3.77;3.30;;;9.90;99.90;;;10.02;70.07;94686.28;5056763;28;20822;-58
2022/05/03 03:06:34;;;;;;;8.70;4.03;;;10.00;99.10;;;10.03;70.27;94690.59;5048134;28;20479;-57
2022/05/03 03:09:03;;;;;;;4.43;3.90;;;10.00;99.20;;;10.04;69.72;94682.56;5050721;28;20978;-57
2022/05/03 03:11:47;;;;;;;8.47;3.90;;;10.00;99.10;;;10.05;70.02;94693.91;5047830;28;20490;-59
2022/05/03 03:14:22;;;;;;;4.23;3.73;;;10.00;99.10;;;10.04;69.70;94682.56;5048309;28;20450;-57
2022/05/03 03:16:55;;;;;;;5.30;3.50;;;10.00;99.10;;;10.03;70.05;94682.72;5048791;28;20490;-56
2022/05/03 03:20:03;;;;;;;4.03;3.73;;;10.00;98.90;;;10.01;70.17;94682.84;5043836;28;20527;-58
2022/05/03 03:22:35;;;;;;;4.43;4.10;;;10.00;99.10;;;9.99;69.76;94682.16;5041714;28;20471;-58
2022/05/03 03:25:04;;;;;;;4.20;3.90;;;10.00;99.00;;;9.99;69.85;94684.81;5045028;28;20548;-59
2022/05/03 03:27:33;;;;;;;4.23;3.93;;;10.00;98.90;;;10.01;70.24;94689.91;5057712;28;20498;-57
2022/05/03 03:30:01;;;;;;;4.20;3.90;;;10.00;99.20;;;10.03;70.32;94686.16;5054065;28;20494;-61
2022/05/03 03:32:28;;;;;;;12.23;3.87;;;10.00;99.20;;;10.08;70.36;94687.53;5053107;28;21030;-57
2022/05/03 03:34:57;;;;;;;4.70;4.33;;;10.00;99.30;;;10.12;70.71;94688.94;5049526;28;20501;-56
2022/05/03 03:37:26;;;;;;;5.40;4.67;;;10.10;99.80;;;10.19;70.55;94696.09;5044701;28;20460;-57
2022/05/03 03:39:55;;;;;;;5.87;4.67;;;10.10;99.80;;;10.27;70.41;94699.81;5051036;28;20464;-56
2022/05/03 03:42:22;;;;;;;5.00;4.70;;;10.20;99.70;;;10.31;70.37;94691.50;5061496;28;20952;-57
2022/05/03 03:44:50;;;;;;;4.60;4.30;;;10.20;99.70;;;10.37;69.83;94688.31;5057600;28;20455;-58
2022/05/03 03:47:17;;;;;;;6.10;5.20;;;10.30;99.30;;;10.42;70.28;94700.22;5054515;28;20456;-56
2022/05/03 03:49:44;;;;;;;4.97;4.57;;;10.30;99.50;;;10.48;69.75;94702.28;5046424;28;20495;-56
2022/05/03 03:52:13;;;;;;;9.67;5.43;;;10.40;99.20;;;10.54;69.81;94701.72;5042657;28;21073;-57
2022/05/03 03:54:41;;;;;;;5.37;4.90;;;10.50;99.20;;;10.55;69.89;94700.72;5042303;28;20528;-57
2022/05/03 03:57:10;;;;;;;5.40;5.00;;;10.50;99.20;;;10.61;69.87;94705.41;5057225;28;20853;-56
2022/05/03 03:59:38;;;;;;;5.60;5.07;;;10.50;99.20;;;10.64;69.59;94702.47;5060975;28;20446;-56
2022/05/03 04:02:06;;;;;;;5.40;4.90;;;10.50;98.90;;;10.67;70.19;94701.38;5048362;28;20506;-59
2022/05/03 04:04:36;;;;;;;8.17;5.30;;;10.60;99.60;;;10.69;69.52;94705.53;5057659;28;20494;-57
2022/05/03 04:07:04;;;;;;;5.23;4.73;;;10.60;99.00;;;10.73;69.56;94706.88;5053154;28;20456;-58
2022/05/03 04:09:31;;;;;;;12.73;5.70;;;10.60;99.10;;;10.76;69.79;94713.66;5051559;28;20551;-57
2022/05/03 04:12:00;;;;;;;7.00;6.30;;;10.70;99.00;;;10.78;69.79;94703.81;5047013;28;20729;-58
2022/05/03 04:14:29;;;;;;;7.17;5.80;;;10.70;99.30;;;10.82;69.91;94713.06;5045041;28;20448;-58
2022/05/03 04:16:56;;;;;;;8.63;5.77;;;10.70;99.20;;;10.86;69.72;94713.59;5047699;28;20464;-57
2022/05/03 04:19:24;;;;;;;8.63;6.50;;;10.80;99.10;;;10.89;69.84;94713.31;5038801;28;20469;-56
2022/05/03 04:21:51;;;;;;;7.80;7.00;;;10.80;99.20;;;10.92;70.10;94708.63;5047458;28;20494;-58
2022/05/03 04:24:18;;;;;;;7.43;6.43;;;10.80;99.40;;;10.98;69.85;94716.88;5047195;28;20496;-58
2022/05/03 04:26:46;;;;;;;8.60;6.40;;;10.90;99.30;;;11.02;69.49;94716.44;5051899;28;20486;-57
2022/05/03 04:29:14;;;;;;;8.23;6.07;;;10.90;99.10;;;11.05;70.02;94718.78;5052220;28;20986;-59
2022/05/03 04:31:42;;;;;;;9.57;6.40;;;10.90;99.40;;;11.06;69.97;94714.34;5055549;28;20480;-56
2022/05/03 04:34:10;;;;;;;7.37;6.67;;;11.00;99.50;;;11.12;69.80;94722.50;5058195;28;20498;-58
2022/05/03 04:36:37;;;;;;;9.83;6.90;;;11.00;99.30;;;11.20;69.73;94723.56;5059786;28;20468;-58
2022/05/03 04:39:05;;;;;;;11.30;7.23;;;11.10;99.30;;;11.21;69.53;94723.41;5050666;28;20459;-57
2022/05/03 04:41:32;;;;;;;11.40;7.60;;;11.10;99.30;;;11.19;69.72;94717.47;5054601;28;20486;-57
2022/05/03 04:43:59;;;;;;;9.73;6.90;;;11.10;99.00;;;11.18;69.39;94723.69;5046916;28;20627;-60
2022/05/03 04:46:27;;;;;;;6.20;5.60;;;11.10;98.90;;;11.12;68.48;94719.88;5054559;28;20472;-56
2022/05/03 04:48:55;;;;;;;6.93;5.20;;;11.10;98.10;;;11.06;68.72;94727.50;5041468;28;20487;-58
2022/05/03 04:51:24;;;;;;;6.13;5.23;;;11.00;98.30;;;11.00;68.37;94723.69;5046636;28;20470;-57
2022/05/03 04:53:51;;;;;;;10.40;4.60;;;11.00;97.90;;;10.94;67.83;94717.19;5044158;28;20537;-57
2022/05/03 04:56:20;;;;;;;4.27;3.97;;;10.90;97.50;;;10.87;67.51;94716.09;5041446;28;20460;-58
2022/05/03 04:58:48;;;;;;;4.57;4.17;;;10.90;97.20;;;10.82;67.45;94722.78;5044634;28;20460;-56
2022/05/03 05:01:15;;;;;;;4.10;3.83;;;10.80;97.20;;;10.79;67.58;94717.81;5051289;28;20475;-57
2022/05/03 05:03:42;;;;;;;4.40;4.10;;;10.80;97.10;;;10.79;67.42;94725.72;5050918;28;20826;-60
2022/05/03 05:06:12;;;;;;;4.00;3.70;;;10.80;97.20;;;10.77;67.22;94723.22;5057023;28;20557;-57
2022/05/03 05:08:40;;;;;;;4.20;3.80;;;10.70;96.90;;;10.74;67.00;94721.69;5054731;28;20548;-56
2022/05/03 05:11:07;;;;;;;3.90;3.40;;;10.70;96.90;;;10.72;66.49;94728.06;5056229;28;20922;-58
2022/05/03 05:13:35;;;;;;;5.40;3.60;;;10.70;96.40;;;10.70;66.47;94724.75;5054107;28;21205;-59
2022/05/03 05:16:02;;;;;;;3.70;3.40;;;10.70;96.40;;;10.72;66.09;94717.53;5052038;28;20474;-55
2022/05/03 05:18:30;;;;;;;3.57;3.37;;;10.70;96.10;;;10.74;65.73;94726.97;5051405;28;20453;-56
2022/05/03 05:20:57;;;;;;;3.93;3.70;;;10.70;95.80;;;10.73;65.83;94720.03;5057370;28;20474;-59
2022/05/03 05:23:26;;;;;;;4.03;3.20;;;10.70;95.90;;;10.79;65.63;94721.25;5056202;28;20464;-59
2022/05/03 05:25:54;;;;;;;7.20;3.77;;;10.70;95.80;;;10.81;64.79;94726.38;5057097;28;20459;-58
2022/05/03 05:28:22;;;;;;;4.10;2.70;;;10.80;95.10;;;10.83;64.82;94719.16;5052647;28;20999;-59
2022/05/03 05:30:51;;;;;;;2.90;2.67;;;10.80;95.10;;;10.82;64.23;94731.50;5053075;28;20494;-57
2022/05/03 05:33:20;;;;;;;3.33;2.97;;;10.80;94.80;;;10.80;64.19;94729.97;5060449;28;20535;-59
2022/05/03 05:35:48;;;;;;;3.07;2.90;;;10.80;94.60;;;10.75;64.11;94726.00;5060183;28;20473;-56
2022/05/03 05:38:16;;;;;;;3.30;2.80;;;10.80;94.50;;;10.76;63.83;94730.25;5057332;28;20466;-57
2022/05/03 05:40:46;;;;;;;3.80;2.77;;;10.70;94.40;;;10.81;63.62;94721.13;5059016;28;20476;-60
2022/05/03 05:43:13;;;;;;;3.80;3.00;;;10.80;94.20;;;10.90;63.67;94736.84;5060688;28;20466;-55
2022/05/03 05:45:40;;;;;;;3.30;3.10;;;10.80;94.30;;;11.09;63.62;94732.47;5059973;28;20481;-57
2022/05/03 05:48:09;;;;;;;2.57;2.40;;;11.00;94.90;;;11.34;63.17;94727.50;5051599;28;20558;-59
2022/05/03 05:50:37;;;;;;;3.13;2.67;;;11.20;94.20;;;11.53;61.72;94737.91;5050241;28;20577;-57
2022/05/03 05:55:50;;;;;;;3.20;2.60;;;11.50;92.60;;;11.82;60.32;94744.78;5058342;28;20454;-58
2022/05/03 05:58:18;;;;;;;2.43;2.17;;;11.70;91.90;;;11.96;60.37;94753.97;5045466;28;20448;-59
2022/05/03 06:00:45;;;;;;;2.60;2.40;;;11.80;91.60;;;12.04;58.74;94759.34;5060071;28;20467;-57
2022/05/03 06:03:14;;;;;;;2.10;2.00;;;11.90;90.70;;;12.10;58.21;94761.38;5057068;28;20462;-59
2022/05/03 06:05:41;;;;;;;9.73;2.47;;;12.00;90.00;;;12.12;58.38;94756.78;5061202;28;20959;-57
2022/05/03 06:08:09;;;;;;;2.80;2.63;;;12.10;90.10;;;12.17;58.38;94756.31;5056778;28;20972;-58
2022/05/03 06:10:37;;;;;;;3.87;2.63;;;12.10;90.00;;;12.31;57.81;94762.84;5060284;28;20607;-57
2022/05/03 06:13:06;;;;;;;10.60;2.77;;;12.20;89.60;;;12.49;57.90;94755.72;5057598;28;20534;-58
2022/05/03 06:15:33;;;;;;;8.50;2.67;;;12.40;90.00;;;12.72;57.20;94756.06;5060159;28;20524;-58
2022/05/03 06:18:01;;;;;;;8.33;2.47;;;12.60;88.80;;;12.85;57.02;94760.91;5055101;28;20456;-57
2022/05/03 06:20:28;;;;;;;2.43;2.27;;;12.70;87.90;;;12.87;56.72;94756.31;5060646;28;20473;-57
2022/05/03 06:22:56;;;;;;;5.63;2.80;;;12.80;87.20;;;12.86;56.16;94782.88;5060330;28;20459;-58
2022/05/03 06:25:24;;;;;;;5.60;2.23;;;12.80;85.40;;;12.74;55.88;94769.09;5055132;28;20476;-55
2022/05/03 06:27:51;;;;;;;3.70;2.20;;;12.70;84.70;;;12.62;56.09;94765.06;5055274;28;20520;-57
2022/05/03 06:30:20;;;;;;;2.67;2.50;;;12.60;85.30;;;12.64;56.98;94765.72;5059684;28;20518;-57
2022/05/03 06:32:48;;;;;;;2.77;2.57;;;12.60;86.70;;;12.78;57.01;94762.53;5052027;28;20455;-59
2022/05/03 06:35:16;;;;;;;3.20;2.67;;;12.70;87.80;;;12.98;56.68;94764.94;5054113;28;21198;-58
2022/05/03 06:37:45;;;;;;;4.17;2.73;;;12.90;87.60;;;13.15;56.52;94771.97;5049147;28;20455;-57
2022/05/03 06:40:12;;;;;;;6.60;2.80;;;12.90;86.90;;;13.21;56.42;94771.31;5047187;28;20485;-58
2022/05/03 06:42:40;;;;;;;3.27;3.07;;;13.10;86.70;;;13.30;56.21;94774.00;5065230;28;20451;-57
2022/05/03 06:45:09;;;;;;;4.13;2.97;;;13.20;86.20;;;13.26;56.31;94776.97;5051894;28;20487;-58
2022/05/03 06:47:38;;;;;;;3.67;2.60;;;13.20;86.00;;;13.17;56.28;94774.44;5062023;28;20447;-57
2022/05/03 06:50:08;;;;;;;4.03;2.40;;;13.10;85.40;;;13.08;56.27;94778.84;5056586;28;20656;-56
2022/05/03 06:52:42;;;;;;;4.40;2.60;;;13.00;85.00;;;13.07;56.58;94777.19;5053364;28;20495;-58
2022/05/03 06:55:29;;;;;;;14.70;2.83;;;13.00;86.10;;;13.16;56.55;94778.06;5046133;28;20467;-57
2022/05/03 06:57:56;;;;;;;4.43;3.20;;;13.00;86.40;;;13.24;56.27;94781.56;5057387;28;20458;-57
2022/05/03 07:00:24;;;;;;;3.90;3.30;;;13.10;86.10;;;13.32;56.42;94791.31;5048519;28;20475;-58
2022/05/03 07:02:53;;;;;;;3.60;2.20;;;13.20;86.40;;;13.32;55.64;94799.25;5041119;28;20471;-58
2022/05/03 07:05:20;;;;;;;2.90;2.70;;;13.20;84.50;;;13.19;54.71;94794.41;5043670;28;20554;-57
2022/05/03 07:07:48;;;;;;;2.60;2.40;;;13.10;82.00;;;13.07;55.59;94790.38;5050663;28;20456;-56
2022/05/03 07:10:15;;;;;;;3.63;3.10;;;13.10;83.40;;;12.97;55.22;94781.78;5054529;28;20502;-58
2022/05/03 07:12:42;;;;;;;4.03;3.00;;;13.00;84.10;;;12.91;56.36;94781.38;5057023;28;20836;-58
2022/05/03 07:15:10;;;;;;;3.50;2.97;;;12.90;84.90;;;13.00;56.36;94778.81;5051953;28;20479;-57
2022/05/03 07:23:11;;;;;;;2.60;2.40;;;13.20;84.80;;;13.44;55.76;94786.63;5061593;28;20434;-57
2022/05/03 07:25:38;;;;;;;3.77;2.40;;;13.30;84.30;;;13.60;54.88;94796.41;5057902;28;21079;-57
2022/05/03 07:28:06;;;;;;;4.03;2.70;;;13.40;83.60;;;13.67;55.02;94792.16;5055513;28;20787;-57
2022/05/03 07:30:34;;;;;;;4.20;2.47;;;13.50;84.30;;;13.75;55.09;94784.22;5045044;28;20991;-58
2022/05/03 07:33:01;;;;;;;5.77;3.13;;;13.60;83.60;;;13.89;54.69;94784.59;5047747;28;21030;-58
2022/05/03 07:35:32;;;;;;;3.93;3.10;;;13.70;83.70;;;13.99;54.27;94786.13;5055336;28;20484;-57
2022/05/03 07:37:59;;;;;;;3.07;2.50;;;13.90;82.90;;;14.04;54.08;94782.16;5049971;28;20450;-57
2022/05/03 07:40:28;;;;;;;3.47;3.17;;;13.90;82.20;;;14.06;54.19;94796.03;5051574;28;20483;-57
2022/05/03 07:42:55;;;;;;;4.03;3.10;;;13.90;82.20;;;14.05;54.84;94789.09;5061580;28;21038;-59
2022/05/03 07:45:22;;;;;;;4.33;3.93;;;14.00;82.40;;;13.99;54.40;94794.03;5053774;28;20478;-59
2022/05/03 07:47:50;;;;;;;10.20;3.50;;;13.90;82.20;;;13.93;54.81;94801.81;5053190;28;20955;-59
2022/05/03 07:50:17;;;;;;;5.23;3.10;;;13.80;83.20;;;13.87;54.54;94803.28;5052535;28;20483;-58
2022/05/03 07:52:46;;;;;;;2.80;2.60;;;13.80;82.60;;;13.76;54.73;94801.75;5058653;28;20982;-56
2022/05/03 07:55:13;;;;;;;3.97;2.93;;;13.70;82.60;;;13.68;55.31;94806.19;5055961;28;20486;-58
2022/05/03 07:57:40;;;;;;;5.83;2.53;;;13.60;82.60;;;13.62;55.09;94810.31;5054820;28;20980;-58
2022/05/03 08:00:09;;;;;;;2.90;2.53;;;13.60;83.00;;;13.57;55.09;94805.50;5055607;28;20476;-59
2022/05/03 08:02:37;;;;;;;5.17;2.57;;;13.50;83.20;;;13.48;55.12;94798.53;5048008;28;20459;-59
2022/05/03 08:05:05;;;;;;;3.97;2.60;;;13.50;83.00;;;13.42;55.53;94809.75;5058785;28;20549;-58
2022/05/03 08:07:33;;;;;;;9.00;2.80;;;13.30;83.30;;;13.33;55.46;94805.38;5046462;28;20585;-56
2022/05/03 08:10:01;;;;;;;3.00;2.80;;;13.30;83.30;;;13.23;55.86;94811.59;5057968;28;20487;-58
2022/05/03 08:12:28;;;;;;;5.80;3.40;;;13.20;84.00;;;13.19;56.32;94812.06;5047323;28;20522;-56
2022/05/03 08:14:56;;;;;;;3.00;2.80;;;13.20;84.60;;;13.16;56.37;94815.03;5055796;28;20520;-57
2022/05/03 08:17:25;;;;;;;4.40;2.33;;;13.10;84.80;;;13.15;56.28;94813.38;5050747;28;20853;-59
2022/05/03 08:19:52;;;;;;;2.33;2.23;;;13.10;85.00;;;13.13;55.91;94823.28;5059165;28;20459;-59
2022/05/03 08:22:19;;;;;;;5.33;2.50;;;13.00;84.90;;;13.05;56.43;94824.06;5058325;28;20506;-57
2022/05/03 08:24:47;;;;;;;3.27;3.07;;;13.00;85.00;;;12.96;56.83;94827.63;5045300;28;20459;-57
2022/05/03 08:27:16;;;;;;;3.30;2.60;;;12.90;85.40;;;12.91;56.76;94828.91;5047995;28;20671;-60
2022/05/03 08:29:43;;;;;;;3.20;2.70;;;12.90;85.70;;;12.86;56.89;94836.47;5049285;28;20464;-58
2022/05/03 08:32:11;;;;;;;2.27;2.00;;;12.80;85.80;;;12.81;57.35;94836.13;5055065;28;20455;-58
2022/05/03 08:34:38;;;;;;;3.10;2.27;;;12.80;86.60;;;12.80;57.52;94842.38;5057564;28;20455;-58
2022/05/03 08:42:36;;;;;;;2.30;2.20;;;12.70;86.80;;;12.63;57.52;94849.34;5053267;28;20539;-59
2022/05/03 08:45:04;;;;;;;4.00;1.77;;;12.60;86.90;;;12.64;57.39;94852.78;5050468;28;20500;-59
2022/05/03 08:47:32;;;;;;;6.53;2.37;;;12.60;87.00;;;12.63;57.22;94857.25;5059183;28;20463;-59
2022/05/03 08:50:06;;;;;;;2.47;2.27;;;12.60;87.10;;;12.62;57.25;94862.69;5057155;28;20837;-60
2022/05/03 08:52:39;;;;;;;2.60;2.40;;;12.60;87.10;;;12.63;57.60;94859.06;5049427;28;20451;-58
2022/05/03 08:55:07;;;;;;;3.60;2.90;;;12.60;87.00;;;12.66;57.30;94859.59;5054164;28;20467;-57
2022/05/03 08:57:36;;;;;;;2.57;2.37;;;12.60;86.80;;;12.73;57.42;94854.50;5052070;28;20458;-56
2022/05/03 09:00:04;;;;;;;1.70;1.60;;;12.60;86.90;;;12.83;57.18;94851.81;5052592;28;20813;-60
2022/05/03 09:02:32;;;;;;;2.37;2.17;;;12.70;87.10;;;12.85;55.85;94863.84;5051679;28;20459;-56
2022/05/03 09:04:59;;;;;;;4.10;2.00;;;12.80;84.90;;;12.85;56.66;94850.66;5043602;28;20475;-58
2022/05/03 09:07:27;;;;;;;5.80;2.03;;;12.80;85.70;;;12.99;56.55;94851.91;5052001;28;20623;-59
2022/05/03 09:09:55;;;;;;;2.50;2.30;;;12.90;86.00;;;13.16;56.27;94858.09;5042228;28;20459;-57
2022/05/03 09:12:24;;;;;;;2.37;2.10;;;13.00;85.30;;;13.39;55.51;94854.97;5048513;28;20494;-56
2022/05/03 09:14:53;;;;;;;2.70;2.43;;;13.20;84.70;;;13.61;55.41;94849.09;5061498;28;20450;-55
2022/05/03 09:17:40;;;;;;;4.10;2.30;;;13.40;84.40;;;13.85;55.11;94852.00;5063707;28;20462;-56
2022/05/03 09:25:49;;;;;;;2.10;1.80;;;14.10;82.30;;;14.57;53.47;94856.78;5060596;28;20462;-56
2022/05/03 09:28:16;;;;;;;3.23;1.80;;;14.30;81.20;;;14.78;52.87;94851.00;5054790;28;20546;-57
2022/05/03 09:30:50;;;;;;;2.57;1.60;;;14.50;80.40;;;15.03;51.71;94846.53;5054226;28;20501;-59
2022/05/03 09:33:19;;;;;;;1.90;1.70;;;14.70;78.40;;;15.18;50.79;94844.84;5060141;28;20500;-57
2022/05/03 09:35:46;;;;;;;5.03;1.60;;;14.90;75.30;;;15.29;50.78;94845.47;5056166;28;20483;-56
2022/05/03 09:38:13;;;;;;;3.20;1.90;;;15.10;75.50;;;15.50;50.16;94835.16;5059498;28;20447;-58
2022/05/03 09:40:42;;;;;;;11.63;2.07;;;15.30;74.40;;;15.87;50.24;94838.19;5054561;28;20499;-57
2022/05/03 09:43:09;;;;;;;3.10;2.00;;;15.60;74.90;;;16.20;49.44;94844.13;5058504;28;20542;-57
2022/05/03 09:45:37;;;;;;;6.53;2.33;;;15.90;73.30;;;16.48;49.05;94839.16;5059712;28;21092;-57
2022/05/03 09:48:07;;;;;;;3.23;1.83;;;16.20;72.20;;;16.85;48.50;94834.88;5065082;28;20505;-58
2022/05/03 09:50:40;;;;;;;4.40;2.80;;;16.50;71.50;;;17.10;47.38;94829.38;5060485;28;20506;-57
2022/05/03 09:53:13;;;;;;;1.70;1.60;;;16.80;69.10;;;17.19;46.17;94830.91;5061772;28;20479;-57
2022/05/03 09:55:41;;;;;;;2.60;1.73;;;17.00;65.40;;;17.07;46.18;94831.53;5059194;28;21018;-57
2022/05/03 09:58:10;;;;;;;1.70;1.60;;;16.90;63.40;;;16.84;46.16;94832.41;5057923;28;20486;-57
2022/05/03 10:00:40;;;;;;;4.00;1.77;;;16.80;63.90;;;16.65;46.47;94825.72;5058870;28;20535;-56
2022/05/03 10:03:10;;;;;;;4.07;2.10;;;16.60;64.50;;;16.59;46.89;94821.13;5055509;28;20470;-58
2022/05/03 10:05:38;;;;;;;2.23;2.03;;;16.50;65.10;;;16.64;47.08;94826.75;5057818;28;20479;-57
2022/05/03 10:08:06;;;;;;;6.63;1.30;;;16.50;65.60;;;16.62;47.01;94829.59;5057362;28;20440;-56
2022/05/03 10:10:33;;;;;;;2.50;1.90;;;16.50;65.50;;;16.64;47.24;94826.75;5056160;28;20487;-56
2022/05/03 10:13:01;;;;;;;1.87;1.77;;;16.50;65.60;;;16.66;45.94;94835.38;5060386;28;20598;-57
2022/05/03 10:21:07;;;;;;;2.30;1.30;;;16.40;63.10;;;16.66;46.14;94822.09;5050243;28;20471;-58
2022/05/03 10:23:35;;;;;;;2.30;1.57;;;16.50;63.00;;;16.84;45.48;94813.81;5053186;28;20475;-58
2022/05/03 10:26:05;;;;;;;5.90;1.37;;;16.60;62.70;;;17.08;45.53;94812.75;5059636;28;20548;-57
2022/05/03 10:29:07;;;;;;;1.90;1.80;;;16.80;62.80;;;17.34;44.73;94814.16;5057651;28;20596;-57
2022/05/03 10:31:54;;;;;;;1.47;1.37;;;17.10;61.30;;;17.61;44.21;94810.03;5038467;28;20491;-58
2022/05/03 10:34:51;;;;;;;1.67;1.00;;;17.30;59.20;;;17.72;43.83;94806.06;5058876;28;20549;-57
2022/05/03 10:37:20;;;;;;;1.73;1.63;;;17.50;59.20;;;17.83;43.76;94810.94;5050646;28;20438;-57
2022/05/03 10:39:51;;;;;;;1.37;1.20;;;17.60;58.60;;;17.78;43.06;94807.97;5048350;28;20554;-58
2022/05/03 10:42:18;;;;;;;7.53;1.20;;;17.60;57.90;;;17.63;42.51;94808.03;5062818;28;20539;-57
2022/05/03 10:45:00;;;;;;;1.30;1.20;;;17.50;56.10;;;17.49;43.41;94811.50;5056675;28;20462;-57
2022/05/03 10:47:45;;;;;;;2.20;1.93;;;17.40;56.90;;;17.35;42.94;94803.34;5059031;28;20947;-58
2022/05/03 10:50:33;;;;;;;1.83;1.40;;;17.30;56.80;;;17.27;43.62;94803.41;5059320;28;20478;-57
2022/05/03 10:53:27;;;;;;;2.40;1.80;;;17.10;57.50;;;17.22;43.17;94810.31;5049983;28;20445;-58
2022/05/03 10:56:21;;;;;;;2.70;1.50;;;17.10;57.50;;;17.16;43.45;94804.69;5052045;28;20508;-56
2022/05/03 10:59:16;;;;;;;3.03;1.33;;;17.00;57.50;;;17.10;43.19;94817.91;5055467;28;20520;-57
2022/05/03 11:02:09;;;;;;;3.63;1.67;;;17.00;58.30;;;16.99;43.98;94811.19;5055102;28;20574;-58
2022/05/03 11:04:36;;;;;;;5.43;1.60;;;16.90;57.90;;;17.01;44.15;94801.22;5047673;28;20447;-59
2022/05/03 11:07:06;;;;;;;3.37;1.60;;;16.80;57.80;;;17.17;44.12;94806.34;5048658;28;20498;-57
2022/05/03 11:09:34;;;;;;;1.90;1.80;;;17.00;58.60;;;17.42;43.70;94799.97;5053962;28;20454;-56
2022/05/03 11:12:07;;;;;;;1.93;1.53;;;17.20;58.30;;;17.66;43.38;94806.81;5050893;28;21079;-56